sensor_id;sensor_type;location;lat;lon;timestamp;P1;durP1;ratioP1;P2;durP2;ratioP2
25249;SDS011;13201;51.148;13.738;2023-10-31T00:00:47;8.18;;;4.15;;
25249;SDS011;13201;51.148;13.738;2023-10-31T00:03:13;9.43;;;5.00;;
25249;SDS011;13201;51.148;13.738;2023-10-31T00:05:39;9.05;;;4.10;;
25249;SDS011;13201;51.148;13.738;2023-10-31T00:08:04;9.98;;;4.15;;
25249;SDS011;13201;51.148;13.738;2023-10-31T00:10:30;7.72;;;4.03;;
25249;SDS011;13201;51.148;13.738;2023-10-31T00:12:56;11.23;;;4.57;;
25249;SDS011;13201;51.148;13.738;2023-10-31T00:15:22;7.90;;;4.40;;
25249;SDS011;13201;51.148;13.738;2023-10-31T00:17:49;6.97;;;4.13;;
25249;SDS011;13201;51.148;13.738;2023-10-31T00:20:15;10.18;;;4.40;;
25249;SDS011;13201;51.148;13.738;2023-10-31T00:22:41;12.77;;;4.25;;
25249;SDS011;13201;51.148;13.738;2023-10-31T00:25:06;8.85;;;4.07;;
25249;SDS011;13201;51.148;13.738;2023-10-31T00:27:32;9.20;;;4.38;;
25249;SDS011;13201;51.148;13.738;2023-10-31T00:29:58;10.02;;;4.57;;
25249;SDS011;13201;51.148;13.738;2023-10-31T00:32:23;9.90;;;4.55;;
25249;SDS011;13201;51.148;13.738;2023-10-31T00:34:50;10.40;;;4.55;;
25249;SDS011;13201;51.148;13.738;2023-10-31T00:37:16;8.40;;;4.53;;
25249;SDS011;13201;51.148;13.738;2023-10-31T00:39:42;8.98;;;3.92;;
25249;SDS011;13201;51.148;13.738;2023-10-31T00:42:07;10.70;;;4.35;;
25249;SDS011;13201;51.148;13.738;2023-10-31T00:44:33;12.30;;;4.70;;
25249;SDS011;13201;51.148;13.738;2023-10-31T00:46:59;11.32;;;4.88;;
25249;SDS011;13201;51.148;13.738;2023-10-31T00:49:24;11.07;;;4.32;;
25249;SDS011;13201;51.148;13.738;2023-10-31T00:51:50;6.60;;;4.32;;
25249;SDS011;13201;51.148;13.738;2023-10-31T00:54:15;11.77;;;4.53;;
25249;SDS011;13201;51.148;13.738;2023-10-31T00:56:41;8.55;;;4.15;;
25249;SDS011;13201;51.148;13.738;2023-10-31T00:59:07;10.38;;;4.60;;
25249;SDS011;13201;51.148;13.738;2023-10-31T01:01:32;9.82;;;4.60;;
25249;SDS011;13201;51.148;13.738;2023-10-31T01:28:25;11.65;;;7.22;;
25249;SDS011;13201;51.148;13.738;2023-10-31T01:30:51;12.85;;;6.90;;
25249;SDS011;13201;51.148;13.738;2023-10-31T01:33:16;12.18;;;6.60;;
25249;SDS011;13201;51.148;13.738;2023-10-31T01:35:42;10.40;;;5.75;;
25249;SDS011;13201;51.148;13.738;2023-10-31T01:38:08;10.93;;;5.97;;
25249;SDS011;13201;51.148;13.738;2023-10-31T01:40:33;12.48;;;6.18;;
25249;SDS011;13201;51.148;13.738;2023-10-31T01:42:59;8.93;;;5.93;;
25249;SDS011;13201;51.148;13.738;2023-10-31T01:45:25;8.57;;;5.72;;
25249;SDS011;13201;51.148;13.738;2023-10-31T01:47:50;9.20;;;5.32;;
25249;SDS011;13201;51.148;13.738;2023-10-31T01:50:16;7.50;;;5.05;;
25249;SDS011;13201;51.148;13.738;2023-10-31T01:52:43;8.30;;;4.90;;
25249;SDS011;13201;51.148;13.738;2023-10-31T01:55:09;8.83;;;5.53;;
25249;SDS011;13201;51.148;13.738;2023-10-31T01:57:36;8.95;;;5.35;;
25249;SDS011;13201;51.148;13.738;2023-10-31T02:00:02;8.67;;;5.20;;
25249;SDS011;13201;51.148;13.738;2023-10-31T02:02:28;7.28;;;5.13;;
25249;SDS011;13201;51.148;13.738;2023-10-31T02:04:58;9.35;;;5.07;;
25249;SDS011;13201;51.148;13.738;2023-10-31T02:07:25;10.80;;;6.45;;
25249;SDS011;13201;51.148;13.738;2023-10-31T02:09:50;8.15;;;5.25;;
25249;SDS011;13201;51.148;13.738;2023-10-31T02:12:33;11.45;;;5.88;;
25249;SDS011;13201;51.148;13.738;2023-10-31T02:15:00;11.52;;;6.53;;
25249;SDS011;13201;51.148;13.738;2023-10-31T02:17:26;11.02;;;6.63;;
25249;SDS011;13201;51.148;13.738;2023-10-31T02:19:51;11.18;;;6.50;;
25249;SDS011;13201;51.148;13.738;2023-10-31T02:22:17;12.43;;;6.82;;
25249;SDS011;13201;51.148;13.738;2023-10-31T02:24:43;12.63;;;6.97;;
25249;SDS011;13201;51.148;13.738;2023-10-31T02:27:09;12.15;;;7.13;;
25249;SDS011;13201;51.148;13.738;2023-10-31T02:29:34;13.45;;;6.82;;
25249;SDS011;13201;51.148;13.738;2023-10-31T02:32:00;11.32;;;7.03;;
25249;SDS011;13201;51.148;13.738;2023-10-31T02:34:26;12.70;;;8.50;;
25249;SDS011;13201;51.148;13.738;2023-10-31T02:36:51;12.30;;;8.90;;
25249;SDS011;13201;51.148;13.738;2023-10-31T02:39:17;13.15;;;8.82;;
25249;SDS011;13201;51.148;13.738;2023-10-31T02:41:43;12.63;;;8.88;;
25249;SDS011;13201;51.148;13.738;2023-10-31T02:44:09;11.65;;;8.43;;
25249;SDS011;13201;51.148;13.738;2023-10-31T02:46:38;11.52;;;8.45;;
25249;SDS011;13201;51.148;13.738;2023-10-31T02:49:03;19.70;;;14.15;;
25249;SDS011;13201;51.148;13.738;2023-10-31T02:51:29;17.70;;;12.93;;
25249;SDS011;13201;51.148;13.738;2023-10-31T02:53:55;18.48;;;12.57;;
25249;SDS011;13201;51.148;13.738;2023-10-31T02:56:20;18.40;;;13.13;;
25249;SDS011;13201;51.148;13.738;2023-10-31T02:58:46;19.67;;;13.95;;
25249;SDS011;13201;51.148;13.738;2023-10-31T03:01:12;22.65;;;14.38;;
25249;SDS011;13201;51.148;13.738;2023-10-31T03:03:37;21.20;;;14.35;;
25249;SDS011;13201;51.148;13.738;2023-10-31T03:06:04;21.92;;;13.98;;
25249;SDS011;13201;51.148;13.738;2023-10-31T03:08:30;18.48;;;14.50;;
25249;SDS011;13201;51.148;13.738;2023-10-31T03:10:56;20.83;;;14.98;;
25249;SDS011;13201;51.148;13.738;2023-10-31T03:13:22;22.42;;;15.07;;
25249;SDS011;13201;51.148;13.738;2023-10-31T03:15:48;24.23;;;15.32;;
25249;SDS011;13201;51.148;13.738;2023-10-31T03:18:14;20.77;;;14.63;;
25249;SDS011;13201;51.148;13.738;2023-10-31T03:20:40;20.83;;;15.03;;
25249;SDS011;13201;51.148;13.738;2023-10-31T03:23:08;22.05;;;15.02;;
25249;SDS011;13201;51.148;13.738;2023-10-31T03:25:34;22.35;;;15.63;;
25249;SDS011;13201;51.148;13.738;2023-10-31T03:28:00;23.25;;;15.45;;
25249;SDS011;13201;51.148;13.738;2023-10-31T03:30:25;20.95;;;14.98;;
25249;SDS011;13201;51.148;13.738;2023-10-31T03:32:51;25.35;;;15.55;;
25249;SDS011;13201;51.148;13.738;2023-10-31T03:35:16;21.50;;;14.20;;
25249;SDS011;13201;51.148;13.738;2023-10-31T03:37:42;22.00;;;15.38;;
25249;SDS011;13201;51.148;13.738;2023-10-31T03:40:08;22.02;;;14.50;;
25249;SDS011;13201;51.148;13.738;2023-10-31T03:42:34;19.73;;;13.20;;
25249;SDS011;13201;51.148;13.738;2023-10-31T03:45:00;18.08;;;12.70;;
25249;SDS011;13201;51.148;13.738;2023-10-31T03:47:26;22.85;;;14.20;;
25249;SDS011;13201;51.148;13.738;2023-10-31T03:49:51;19.85;;;12.50;;
25249;SDS011;13201;51.148;13.738;2023-10-31T03:52:17;17.90;;;11.82;;
25249;SDS011;13201;51.148;13.738;2023-10-31T03:54:44;17.52;;;11.70;;
25249;SDS011;13201;51.148;13.738;2023-10-31T03:57:10;16.77;;;11.40;;
25249;SDS011;13201;51.148;13.738;2023-10-31T03:59:39;14.88;;;10.18;;
25249;SDS011;13201;51.148;13.738;2023-10-31T04:02:04;14.13;;;9.48;;
25249;SDS011;13201;51.148;13.738;2023-10-31T04:04:30;19.02;;;9.23;;
25249;SDS011;13201;51.148;13.738;2023-10-31T04:06:56;12.77;;;9.07;;
25249;SDS011;13201;51.148;13.738;2023-10-31T04:09:21;13.00;;;8.45;;
25249;SDS011;13201;51.148;13.738;2023-10-31T04:11:47;10.95;;;7.72;;
25249;SDS011;13201;51.148;13.738;2023-10-31T04:14:13;8.85;;;7.32;;
25249;SDS011;13201;51.148;13.738;2023-10-31T04:16:39;8.60;;;6.50;;
25249;SDS011;13201;51.148;13.738;2023-10-31T04:19:10;11.73;;;6.88;;
25249;SDS011;13201;51.148;13.738;2023-10-31T04:21:39;9.88;;;6.57;;
25249;SDS011;13201;51.148;13.738;2023-10-31T04:24:05;9.38;;;6.47;;
25249;SDS011;13201;51.148;13.738;2023-10-31T04:26:31;9.38;;;6.05;;
25249;SDS011;13201;51.148;13.738;2023-10-31T04:28:56;8.80;;;5.82;;
25249;SDS011;13201;51.148;13.738;2023-10-31T04:31:22;10.55;;;5.25;;
25249;SDS011;13201;51.148;13.738;2023-10-31T04:33:48;6.00;;;4.53;;
25249;SDS011;13201;51.148;13.738;2023-10-31T04:36:13;5.20;;;4.18;;
25249;SDS011;13201;51.148;13.738;2023-10-31T04:38:39;4.85;;;3.55;;
25249;SDS011;13201;51.148;13.738;2023-10-31T04:41:04;5.32;;;3.10;;
25249;SDS011;13201;51.148;13.738;2023-10-31T04:43:30;4.70;;;3.08;;
25249;SDS011;13201;51.148;13.738;2023-10-31T04:45:56;5.18;;;2.83;;
25249;SDS011;13201;51.148;13.738;2023-10-31T04:48:21;8.18;;;2.97;;
25249;SDS011;13201;51.148;13.738;2023-10-31T04:50:47;5.78;;;2.42;;
25249;SDS011;13201;51.148;13.738;2023-10-31T04:53:13;4.20;;;2.50;;
25249;SDS011;13201;51.148;13.738;2023-10-31T04:55:38;9.88;;;2.50;;
25249;SDS011;13201;51.148;13.738;2023-10-31T04:58:04;3.63;;;2.40;;
25249;SDS011;13201;51.148;13.738;2023-10-31T05:00:30;2.83;;;2.28;;
25249;SDS011;13201;51.148;13.738;2023-10-31T05:02:55;5.45;;;2.13;;
25249;SDS011;13201;51.148;13.738;2023-10-31T05:05:23;3.40;;;1.95;;
25249;SDS011;13201;51.148;13.738;2023-10-31T05:07:48;2.80;;;1.65;;
25249;SDS011;13201;51.148;13.738;2023-10-31T05:10:14;3.05;;;1.90;;
25249;SDS011;13201;51.148;13.738;2023-10-31T05:12:40;2.45;;;1.83;;
25249;SDS011;13201;51.148;13.738;2023-10-31T05:15:06;2.38;;;1.58;;
25249;SDS011;13201;51.148;13.738;2023-10-31T05:17:32;3.47;;;1.63;;
25249;SDS011;13201;51.148;13.738;2023-10-31T05:19:58;1.83;;;1.42;;
25249;SDS011;13201;51.148;13.738;2023-10-31T05:22:23;3.08;;;1.85;;
25249;SDS011;13201;51.148;13.738;2023-10-31T05:24:50;2.63;;;1.40;;
25249;SDS011;13201;51.148;13.738;2023-10-31T05:27:16;2.13;;;1.42;;
25249;SDS011;13201;51.148;13.738;2023-10-31T05:29:41;2.80;;;1.73;;
25249;SDS011;13201;51.148;13.738;2023-10-31T05:32:07;3.47;;;1.77;;
25249;SDS011;13201;51.148;13.738;2023-10-31T05:34:33;2.30;;;1.90;;
25249;SDS011;13201;51.148;13.738;2023-10-31T05:36:58;2.45;;;1.85;;
25249;SDS011;13201;51.148;13.738;2023-10-31T05:39:24;2.65;;;1.73;;
25249;SDS011;13201;51.148;13.738;2023-10-31T05:41:50;2.35;;;1.65;;
25249;SDS011;13201;51.148;13.738;2023-10-31T05:44:15;2.33;;;1.67;;
25249;SDS011;13201;51.148;13.738;2023-10-31T05:46:41;2.00;;;1.33;;
25249;SDS011;13201;51.148;13.738;2023-10-31T05:49:07;3.58;;;1.48;;
25249;SDS011;13201;51.148;13.738;2023-10-31T05:51:33;1.70;;;1.33;;
25249;SDS011;13201;51.148;13.738;2023-10-31T05:56:25;2.03;;;1.20;;
25249;SDS011;13201;51.148;13.738;2023-10-31T05:58:51;3.08;;;1.23;;
25249;SDS011;13201;51.148;13.738;2023-10-31T06:01:17;6.22;;;1.23;;
25249;SDS011;13201;51.148;13.738;2023-10-31T06:03:43;1.80;;;1.30;;
25249;SDS011;13201;51.148;13.738;2023-10-31T06:06:09;3.47;;;1.10;;
25249;SDS011;13201;51.148;13.738;2023-10-31T06:08:36;2.78;;;1.27;;
25249;SDS011;13201;51.148;13.738;2023-10-31T06:11:02;2.00;;;1.27;;
25249;SDS011;13201;51.148;13.738;2023-10-31T06:13:29;3.42;;;1.15;;
25249;SDS011;13201;51.148;13.738;2023-10-31T06:15:56;1.20;;;1.00;;
25249;SDS011;13201;51.148;13.738;2023-10-31T06:18:23;3.47;;;1.05;;
25249;SDS011;13201;51.148;13.738;2023-10-31T06:20:49;1.45;;;0.90;;
25249;SDS011;13201;51.148;13.738;2023-10-31T06:23:14;0.90;;;0.82;;
25249;SDS011;13201;51.148;13.738;2023-10-31T06:25:40;2.97;;;0.90;;
25249;SDS011;13201;51.148;13.738;2023-10-31T06:28:06;3.25;;;1.00;;
25249;SDS011;13201;51.148;13.738;2023-10-31T06:30:31;1.00;;;0.90;;
25249;SDS011;13201;51.148;13.738;2023-10-31T06:32:58;1.60;;;0.90;;
25249;SDS011;13201;51.148;13.738;2023-10-31T06:35:24;0.82;;;0.77;;
25249;SDS011;13201;51.148;13.738;2023-10-31T06:37:51;1.13;;;0.90;;
25249;SDS011;13201;51.148;13.738;2023-10-31T06:40:21;3.35;;;1.00;;
25249;SDS011;13201;51.148;13.738;2023-10-31T06:42:46;0.70;;;0.63;;
25249;SDS011;13201;51.148;13.738;2023-10-31T06:45:12;1.10;;;0.70;;
25249;SDS011;13201;51.148;13.738;2023-10-31T06:47:38;2.22;;;0.63;;
25249;SDS011;13201;51.148;13.738;2023-10-31T06:50:03;3.22;;;0.60;;
25249;SDS011;13201;51.148;13.738;2023-10-31T06:52:30;1.20;;;0.50;;
25249;SDS011;13201;51.148;13.738;2023-10-31T06:54:55;1.35;;;0.52;;
25249;SDS011;13201;51.148;13.738;2023-10-31T06:57:21;0.70;;;0.50;;
25249;SDS011;13201;51.148;13.738;2023-10-31T06:59:47;1.20;;;0.55;;
25249;SDS011;13201;51.148;13.738;2023-10-31T07:02:12;0.73;;;0.47;;
25249;SDS011;13201;51.148;13.738;2023-10-31T07:04:39;0.90;;;0.67;;
25249;SDS011;13201;51.148;13.738;2023-10-31T07:07:04;1.15;;;0.60;;
25249;SDS011;13201;51.148;13.738;2023-10-31T07:09:30;0.50;;;0.50;;
25249;SDS011;13201;51.148;13.738;2023-10-31T07:11:56;0.63;;;0.60;;
25249;SDS011;13201;51.148;13.738;2023-10-31T07:14:21;0.63;;;0.50;;
25249;SDS011;13201;51.148;13.738;2023-10-31T07:16:47;1.50;;;0.35;;
25249;SDS011;13201;51.148;13.738;2023-10-31T07:19:13;1.45;;;0.40;;
25249;SDS011;13201;51.148;13.738;2023-10-31T07:21:39;0.93;;;0.50;;
25249;SDS011;13201;51.148;13.738;2023-10-31T07:24:05;0.93;;;0.40;;
25249;SDS011;13201;51.148;13.738;2023-10-31T07:26:33;0.70;;;0.50;;
25249;SDS011;13201;51.148;13.738;2023-10-31T07:28:59;0.73;;;0.50;;
25249;SDS011;13201;51.148;13.738;2023-10-31T07:31:25;0.57;;;0.50;;
25249;SDS011;13201;51.148;13.738;2023-10-31T07:33:51;0.98;;;0.45;;
25249;SDS011;13201;51.148;13.738;2023-10-31T07:36:16;0.73;;;0.50;;
25249;SDS011;13201;51.148;13.738;2023-10-31T07:38:42;0.50;;;0.40;;
25249;SDS011;13201;51.148;13.738;2023-10-31T07:41:08;0.70;;;0.52;;
25249;SDS011;13201;51.148;13.738;2023-10-31T07:43:33;0.70;;;0.40;;
25249;SDS011;13201;51.148;13.738;2023-10-31T07:45:59;0.50;;;0.40;;
25249;SDS011;13201;51.148;13.738;2023-10-31T07:48:25;0.30;;;0.30;;
25249;SDS011;13201;51.148;13.738;2023-10-31T07:50:51;1.13;;;0.40;;
25249;SDS011;13201;51.148;13.738;2023-10-31T07:53:16;0.43;;;0.30;;
25249;SDS011;13201;51.148;13.738;2023-10-31T07:55:42;1.38;;;0.30;;
25249;SDS011;13201;51.148;13.738;2023-10-31T07:58:08;0.63;;;0.32;;
25249;SDS011;13201;51.148;13.738;2023-10-31T08:00:35;0.30;;;0.30;;
25249;SDS011;13201;51.148;13.738;2023-10-31T08:03:01;1.93;;;0.30;;
25249;SDS011;13201;51.148;13.738;2023-10-31T08:05:27;0.37;;;0.30;;
25249;SDS011;13201;51.148;13.738;2023-10-31T08:07:53;2.05;;;0.35;;
25249;SDS011;13201;51.148;13.738;2023-10-31T08:10:18;0.75;;;0.38;;
25249;SDS011;13201;51.148;13.738;2023-10-31T08:12:44;0.35;;;0.35;;
25249;SDS011;13201;51.148;13.738;2023-10-31T08:15:10;0.38;;;0.30;;
25249;SDS011;13201;51.148;13.738;2023-10-31T08:17:35;0.50;;;0.40;;
25249;SDS011;13201;51.148;13.738;2023-10-31T08:20:02;5.45;;;0.40;;
25249;SDS011;13201;51.148;13.738;2023-10-31T08:22:31;2.15;;;0.47;;
25249;SDS011;13201;51.148;13.738;2023-10-31T08:24:57;2.65;;;0.30;;
25249;SDS011;13201;51.148;13.738;2023-10-31T08:27:22;1.08;;;0.35;;
25249;SDS011;13201;51.148;13.738;2023-10-31T08:29:48;1.08;;;0.45;;
25249;SDS011;13201;51.148;13.738;2023-10-31T08:32:13;0.70;;;0.40;;
25249;SDS011;13201;51.148;13.738;2023-10-31T08:34:39;1.40;;;0.50;;
25249;SDS011;13201;51.148;13.738;2023-10-31T08:37:05;0.43;;;0.28;;
25249;SDS011;13201;51.148;13.738;2023-10-31T08:39:30;2.55;;;0.40;;
25249;SDS011;13201;51.148;13.738;2023-10-31T08:41:56;1.02;;;0.30;;
25249;SDS011;13201;51.148;13.738;2023-10-31T08:44:23;0.70;;;0.40;;
25249;SDS011;13201;51.148;13.738;2023-10-31T08:46:50;0.47;;;0.20;;
25249;SDS011;13201;51.148;13.738;2023-10-31T08:49:16;0.85;;;0.30;;
25249;SDS011;13201;51.148;13.738;2023-10-31T08:51:42;3.67;;;0.43;;
25249;SDS011;13201;51.148;13.738;2023-10-31T08:54:09;0.35;;;0.22;;
25249;SDS011;13201;51.148;13.738;2023-10-31T08:56:35;0.40;;;0.32;;
25249;SDS011;13201;51.148;13.738;2023-10-31T08:59:00;1.98;;;0.30;;
25249;SDS011;13201;51.148;13.738;2023-10-31T09:01:26;0.73;;;0.30;;
25249;SDS011;13201;51.148;13.738;2023-10-31T09:03:54;0.85;;;0.17;;
25249;SDS011;13201;51.148;13.738;2023-10-31T09:06:20;0.37;;;0.27;;
25249;SDS011;13201;51.148;13.738;2023-10-31T09:08:46;0.20;;;0.20;;
25249;SDS011;13201;51.148;13.738;2023-10-31T09:11:11;0.40;;;0.20;;
25249;SDS011;13201;51.148;13.738;2023-10-31T09:13:37;0.82;;;0.50;;
25249;SDS011;13201;51.148;13.738;2023-10-31T09:16:03;0.73;;;0.20;;
25249;SDS011;13201;51.148;13.738;2023-10-31T09:18:29;2.70;;;0.20;;
25249;SDS011;13201;51.148;13.738;2023-10-31T09:20:54;0.25;;;0.20;;
25249;SDS011;13201;51.148;13.738;2023-10-31T09:23:20;0.45;;;0.20;;
25249;SDS011;13201;51.148;13.738;2023-10-31T09:25:46;0.90;;;0.30;;
25249;SDS011;13201;51.148;13.738;2023-10-31T09:28:11;0.55;;;0.30;;
25249;SDS011;13201;51.148;13.738;2023-10-31T09:30:37;1.33;;;0.55;;
25249;SDS011;13201;51.148;13.738;2023-10-31T09:33:03;1.65;;;0.30;;
25249;SDS011;13201;51.148;13.738;2023-10-31T09:35:29;1.52;;;0.20;;
25249;SDS011;13201;51.148;13.738;2023-10-31T09:37:54;0.65;;;0.30;;
25249;SDS011;13201;51.148;13.738;2023-10-31T09:40:20;0.20;;;0.20;;
25249;SDS011;13201;51.148;13.738;2023-10-31T09:42:47;0.87;;;0.50;;
25249;SDS011;13201;51.148;13.738;2023-10-31T09:47:39;0.40;;;0.23;;
25249;SDS011;13201;51.148;13.738;2023-10-31T09:50:06;2.30;;;0.40;;
25249;SDS011;13201;51.148;13.738;2023-10-31T09:52:35;1.45;;;0.22;;
25249;SDS011;13201;51.148;13.738;2023-10-31T09:57:28;0.30;;;0.28;;
25249;SDS011;13201;51.148;13.738;2023-10-31T09:59:53;1.20;;;0.50;;
25249;SDS011;13201;51.148;13.738;2023-10-31T10:02:19;0.45;;;0.20;;
25249;SDS011;13201;51.148;13.738;2023-10-31T10:04:45;0.20;;;0.20;;
25249;SDS011;13201;51.148;13.738;2023-10-31T10:09:42;1.48;;;0.30;;
25249;SDS011;13201;51.148;13.738;2023-10-31T10:12:08;0.10;;;0.10;;
25249;SDS011;13201;51.148;13.738;2023-10-31T10:14:37;1.75;;;0.20;;
25249;SDS011;13201;51.148;13.738;2023-10-31T10:17:13;0.63;;;0.28;;
25249;SDS011;13201;51.148;13.738;2023-10-31T10:19:41;0.15;;;0.15;;
25249;SDS011;13201;51.148;13.738;2023-10-31T10:22:07;0.93;;;0.30;;
25249;SDS011;13201;51.148;13.738;2023-10-31T10:24:32;1.17;;;0.20;;
25249;SDS011;13201;51.148;13.738;2023-10-31T10:26:58;0.55;;;0.20;;
25249;SDS011;13201;51.148;13.738;2023-10-31T10:29:24;0.10;;;0.10;;
25249;SDS011;13201;51.148;13.738;2023-10-31T10:31:51;0.10;;;0.10;;
25249;SDS011;13201;51.148;13.738;2023-10-31T10:34:17;0.38;;;0.20;;
25249;SDS011;13201;51.148;13.738;2023-10-31T10:36:46;0.28;;;0.20;;
25249;SDS011;13201;51.148;13.738;2023-10-31T10:39:15;2.78;;;0.35;;
25249;SDS011;13201;51.148;13.738;2023-10-31T10:41:54;0.90;;;0.30;;
25249;SDS011;13201;51.148;13.738;2023-10-31T10:44:24;0.20;;;0.10;;
25249;SDS011;13201;51.148;13.738;2023-10-31T10:46:57;0.73;;;0.20;;
25249;SDS011;13201;51.148;13.738;2023-10-31T10:49:26;1.98;;;0.20;;
25249;SDS011;13201;51.148;13.738;2023-10-31T10:51:58;0.22;;;0.20;;
25249;SDS011;13201;51.148;13.738;2023-10-31T10:57:28;1.27;;;0.20;;
25249;SDS011;13201;51.148;13.738;2023-10-31T11:00:04;0.20;;;0.20;;
25249;SDS011;13201;51.148;13.738;2023-10-31T11:02:34;1.90;;;0.47;;
25249;SDS011;13201;51.148;13.738;2023-10-31T11:05:10;0.47;;;0.25;;
25249;SDS011;13201;51.148;13.738;2023-10-31T11:10:03;0.55;;;0.32;;
25249;SDS011;13201;51.148;13.738;2023-10-31T11:12:30;0.47;;;0.30;;
25249;SDS011;13201;51.148;13.738;2023-10-31T11:14:57;0.75;;;0.20;;
25249;SDS011;13201;51.148;13.738;2023-10-31T11:17:24;0.43;;;0.30;;
25249;SDS011;13201;51.148;13.738;2023-10-31T11:19:54;0.28;;;0.20;;
25249;SDS011;13201;51.148;13.738;2023-10-31T11:22:21;0.60;;;0.30;;
25249;SDS011;13201;51.148;13.738;2023-10-31T11:24:48;0.30;;;0.20;;
25249;SDS011;13201;51.148;13.738;2023-10-31T11:27:14;0.32;;;0.20;;
25249;SDS011;13201;51.148;13.738;2023-10-31T11:29:42;0.40;;;0.40;;
25249;SDS011;13201;51.148;13.738;2023-10-31T11:32:09;0.80;;;0.20;;
25249;SDS011;13201;51.148;13.738;2023-10-31T11:34:36;1.42;;;0.30;;
25249;SDS011;13201;51.148;13.738;2023-10-31T11:40:19;0.30;;;0.22;;
25249;SDS011;13201;51.148;13.738;2023-10-31T11:42:53;0.40;;;0.20;;
25249;SDS011;13201;51.148;13.738;2023-10-31T11:45:28;0.23;;;0.10;;
25249;SDS011;13201;51.148;13.738;2023-10-31T11:48:05;0.60;;;0.28;;
25249;SDS011;13201;51.148;13.738;2023-10-31T11:50:31;0.32;;;0.10;;
25249;SDS011;13201;51.148;13.738;2023-10-31T11:52:59;0.50;;;0.20;;
25249;SDS011;13201;51.148;13.738;2023-10-31T11:55:35;0.57;;;0.20;;
25249;SDS011;13201;51.148;13.738;2023-10-31T11:58:12;0.20;;;0.13;;
25249;SDS011;13201;51.148;13.738;2023-10-31T12:00:37;2.65;;;0.22;;
25249;SDS011;13201;51.148;13.738;2023-10-31T12:03:03;3.10;;;0.20;;
25249;SDS011;13201;51.148;13.738;2023-10-31T12:05:29;0.38;;;0.20;;
25249;SDS011;13201;51.148;13.738;2023-10-31T12:07:55;1.02;;;0.32;;
25249;SDS011;13201;51.148;13.738;2023-10-31T12:10:22;1.80;;;0.10;;
25249;SDS011;13201;51.148;13.738;2023-10-31T12:12:54;0.10;;;0.10;;
25249;SDS011;13201;51.148;13.738;2023-10-31T12:15:20;2.90;;;0.20;;
25249;SDS011;13201;51.148;13.738;2023-10-31T12:17:46;0.52;;;0.20;;
25249;SDS011;13201;51.148;13.738;2023-10-31T12:20:12;0.95;;;0.10;;
25249;SDS011;13201;51.148;13.738;2023-10-31T12:22:38;0.45;;;0.30;;
25249;SDS011;13201;51.148;13.738;2023-10-31T12:25:08;0.70;;;0.30;;
25249;SDS011;13201;51.148;13.738;2023-10-31T12:27:42;0.60;;;0.30;;
25249;SDS011;13201;51.148;13.738;2023-10-31T12:30:09;0.68;;;0.28;;
25249;SDS011;13201;51.148;13.738;2023-10-31T12:32:35;2.22;;;0.40;;
25249;SDS011;13201;51.148;13.738;2023-10-31T12:35:01;0.45;;;0.30;;
25249;SDS011;13201;51.148;13.738;2023-10-31T12:37:28;0.28;;;0.20;;
25249;SDS011;13201;51.148;13.738;2023-10-31T12:39:54;0.93;;;0.30;;
25249;SDS011;13201;51.148;13.738;2023-10-31T12:42:22;0.75;;;0.30;;
25249;SDS011;13201;51.148;13.738;2023-10-31T12:44:54;1.23;;;0.30;;
25249;SDS011;13201;51.148;13.738;2023-10-31T12:47:23;0.30;;;0.20;;
25249;SDS011;13201;51.148;13.738;2023-10-31T12:50:04;0.30;;;0.30;;
25249;SDS011;13201;51.148;13.738;2023-10-31T12:55:12;0.95;;;0.57;;
25249;SDS011;13201;51.148;13.738;2023-10-31T12:57:41;1.30;;;0.60;;
25249;SDS011;13201;51.148;13.738;2023-10-31T13:00:07;1.48;;;0.88;;
25249;SDS011;13201;51.148;13.738;2023-10-31T13:02:37;1.27;;;0.50;;
25249;SDS011;13201;51.148;13.738;2023-10-31T13:05:13;2.38;;;0.45;;
25249;SDS011;13201;51.148;13.738;2023-10-31T13:07:47;0.60;;;0.40;;
25249;SDS011;13201;51.148;13.738;2023-10-31T13:10:15;0.35;;;0.25;;
25249;SDS011;13201;51.148;13.738;2023-10-31T13:12:43;0.88;;;0.20;;
25249;SDS011;13201;51.148;13.738;2023-10-31T13:15:10;1.25;;;0.32;;
25249;SDS011;13201;51.148;13.738;2023-10-31T13:17:36;3.15;;;0.47;;
25249;SDS011;13201;51.148;13.738;2023-10-31T13:20:03;1.00;;;0.40;;
25249;SDS011;13201;51.148;13.738;2023-10-31T13:22:37;1.40;;;0.40;;
25249;SDS011;13201;51.148;13.738;2023-10-31T13:25:03;2.67;;;0.52;;
25249;SDS011;13201;51.148;13.738;2023-10-31T13:27:30;4.72;;;0.50;;
25249;SDS011;13201;51.148;13.738;2023-10-31T13:29:57;0.60;;;0.50;;
25249;SDS011;13201;51.148;13.738;2023-10-31T13:32:23;0.77;;;0.40;;
25249;SDS011;13201;51.148;13.738;2023-10-31T13:34:49;0.70;;;0.50;;
25249;SDS011;13201;51.148;13.738;2023-10-31T13:37:15;0.73;;;0.40;;
25249;SDS011;13201;51.148;13.738;2023-10-31T13:39:40;1.90;;;0.40;;
25249;SDS011;13201;51.148;13.738;2023-10-31T13:42:06;4.03;;;1.10;;
25249;SDS011;13201;51.148;13.738;2023-10-31T13:44:32;0.70;;;0.50;;
25249;SDS011;13201;51.148;13.738;2023-10-31T13:46:58;0.87;;;0.30;;
25249;SDS011;13201;51.148;13.738;2023-10-31T13:49:24;0.68;;;0.40;;
25249;SDS011;13201;51.148;13.738;2023-10-31T13:51:49;0.20;;;0.20;;
25249;SDS011;13201;51.148;13.738;2023-10-31T13:54:15;0.38;;;0.30;;
25249;SDS011;13201;51.148;13.738;2023-10-31T13:56:41;0.60;;;0.30;;
25249;SDS011;13201;51.148;13.738;2023-10-31T13:59:06;0.55;;;0.35;;
25249;SDS011;13201;51.148;13.738;2023-10-31T14:01:32;1.55;;;0.45;;
25249;SDS011;13201;51.148;13.738;2023-10-31T14:03:58;1.23;;;0.45;;
25249;SDS011;13201;51.148;13.738;2023-10-31T14:06:23;0.80;;;0.28;;
25249;SDS011;13201;51.148;13.738;2023-10-31T14:08:55;1.73;;;0.45;;
25249;SDS011;13201;51.148;13.738;2023-10-31T14:11:21;0.55;;;0.38;;
25249;SDS011;13201;51.148;13.738;2023-10-31T14:13:47;0.95;;;0.35;;
25249;SDS011;13201;51.148;13.738;2023-10-31T14:16:13;0.70;;;0.40;;
25249;SDS011;13201;51.148;13.738;2023-10-31T14:18:39;0.80;;;0.33;;
25249;SDS011;13201;51.148;13.738;2023-10-31T14:21:06;1.05;;;0.28;;
25249;SDS011;13201;51.148;13.738;2023-10-31T14:23:31;2.15;;;0.50;;
25249;SDS011;13201;51.148;13.738;2023-10-31T14:25:57;1.15;;;0.45;;
25249;SDS011;13201;51.148;13.738;2023-10-31T14:28:23;1.58;;;0.68;;
25249;SDS011;13201;51.148;13.738;2023-10-31T14:30:49;3.50;;;0.85;;
25249;SDS011;13201;51.148;13.738;2023-10-31T14:33:17;1.52;;;0.68;;
25249;SDS011;13201;51.148;13.738;2023-10-31T14:35:43;1.90;;;0.90;;
25249;SDS011;13201;51.148;13.738;2023-10-31T14:38:09;1.50;;;0.88;;
25249;SDS011;13201;51.148;13.738;2023-10-31T14:40:34;3.08;;;1.05;;
25249;SDS011;13201;51.148;13.738;2023-10-31T14:43:00;2.38;;;0.90;;
25249;SDS011;13201;51.148;13.738;2023-10-31T14:45:26;2.20;;;0.68;;
25249;SDS011;13201;51.148;13.738;2023-10-31T14:47:52;0.65;;;0.50;;
25249;SDS011;13201;51.148;13.738;2023-10-31T14:50:18;1.03;;;0.70;;
25249;SDS011;13201;51.148;13.738;2023-10-31T14:52:46;1.02;;;0.68;;
25249;SDS011;13201;51.148;13.738;2023-10-31T14:55:12;1.33;;;0.70;;
25249;SDS011;13201;51.148;13.738;2023-10-31T14:57:38;1.20;;;0.60;;
25249;SDS011;13201;51.148;13.738;2023-10-31T15:00:05;0.85;;;0.40;;
25249;SDS011;13201;51.148;13.738;2023-10-31T15:02:33;2.65;;;1.67;;
25249;SDS011;13201;51.148;13.738;2023-10-31T15:05:02;0.52;;;0.40;;
25249;SDS011;13201;51.148;13.738;2023-10-31T15:07:28;1.15;;;0.60;;
25249;SDS011;13201;51.148;13.738;2023-10-31T15:09:54;1.45;;;0.50;;
25249;SDS011;13201;51.148;13.738;2023-10-31T15:12:20;0.73;;;0.43;;